Village Station, Georgia
Current Conditions -  °F | °C
As of 11:58 PM on Wednesday 26 Nov 2014 (Local Time) from KSVN Reporting Station
Clear Clear  
Wind Chill: 40°   Ceiling: Unl
Heat Index: 44°   Visibility: 10mi
Dew Point: 37°   Wind: 7mph
Humidity: 76%   Direction: 250°WSW
Pressure: 30.14"   Gusts: NA
Location:  31.9252°N, 81.0354°W
Report Text: KSVN 270458Z AUTO 25006KT 10SM CLR 07/03 A3014 RMK AO2 SLP210 T00650025 401620060
Loading
Personal Weather Stations






























Interactive Weather Map New forecast layout! Learn more

10-Day Weather Forecast

Advertisements
Track Severe Weather on mobile